Time;durP1;ratioP1;P1;durP2;ratioP2;P2;SDS_P1;SDS_P2;PMS_P1;PMS_P2;Temp;Humidity;BMP_temperature;BMP_pressure;BME280_temperature;BME280_humidity;BME280_pressure;Samples;Min_cycle;Max_cycle;Signal;HPM_P1;HPM_P2
2023/04/08 00:01:15;;;;;;;12.30;8.05;;;;;;;;;;5045085;28;20038;-80
2023/04/08 00:03:41;;;;;;;12.77;7.88;;;;;;;;;;5068202;28;20124;-80
2023/04/08 00:06:07;;;;;;;14.77;8.30;;;;;;;;;;5050789;28;20047;-80
2023/04/08 00:08:34;;;;;;;12.63;8.35;;;;;;;;;;5034599;28;20040;-80
2023/04/08 00:11:00;;;;;;;14.38;8.38;;;;;;;;;;5050811;28;20036;-80
2023/04/08 00:13:26;;;;;;;14.05;8.50;;;;;;;;;;5050869;28;20094;-80
2023/04/08 00:15:52;;;;;;;13.40;8.25;;;;;;;;;;5051987;28;20041;-80
2023/04/08 00:18:18;;;;;;;14.02;8.52;;;;;;;;;;5052329;28;20041;-80
2023/04/08 00:20:44;;;;;;;13.88;8.65;;;;;;;;;;5050956;28;20044;-80
2023/04/08 00:23:10;;;;;;;14.35;8.93;;;;;;;;;;5051549;28;20741;-80
2023/04/08 00:25:37;;;;;;;14.43;8.60;;;;;;;;;;5052236;28;20053;-80
2023/04/08 00:28:03;;;;;;;14.95;8.95;;;;;;;;;;5051750;28;20102;-80
2023/04/08 00:30:29;;;;;;;13.65;8.38;;;;;;;;;;5034563;28;20040;-80
2023/04/08 00:32:55;;;;;;;14.43;8.60;;;;;;;;;;5051647;28;20094;-80
2023/04/08 00:35:21;;;;;;;15.27;8.85;;;;;;;;;;5050965;28;20041;-80
2023/04/08 00:37:48;;;;;;;16.08;8.65;;;;;;;;;;5051895;28;20056;-80
2023/04/08 00:40:14;;;;;;;13.57;8.75;;;;;;;;;;5051953;28;20052;-80
2023/04/08 00:42:41;;;;;;;13.98;8.90;;;;;;;;;;5050505;28;20049;-79
2023/04/08 00:45:07;;;;;;;16.55;8.63;;;;;;;;;;5050470;28;20040;-80
2023/04/08 00:47:35;;;;;;;15.82;8.50;;;;;;;;;;5050801;28;20076;-80
2023/04/08 00:50:01;;;;;;;13.35;8.23;;;;;;;;;;5037845;28;20091;-80
2023/04/08 00:52:27;;;;;;;16.02;9.23;;;;;;;;;;5050822;28;20045;-80
2023/04/08 00:54:55;;;;;;;15.23;8.95;;;;;;;;;;5050821;28;20037;-80
2023/04/08 00:57:21;;;;;;;13.63;8.68;;;;;;;;;;5051193;28;20124;-79
2023/04/08 00:59:47;;;;;;;14.80;8.68;;;;;;;;;;5051248;28;20045;-80
2023/04/08 01:02:29;;;;;;;13.32;8.30;;;;;;;;;;5043105;28;20080;-80
2023/04/08 01:05:00;;;;;;;15.10;9.02;;;;;;;;;;5067702;28;20527;-80
2023/04/08 01:07:29;;;;;;;13.77;8.57;;;;;;;;;;5052891;28;20048;-80
2023/04/08 01:09:57;;;;;;;14.27;8.52;;;;;;;;;;5055614;28;20049;-80
2023/04/08 01:12:28;;;;;;;16.85;8.55;;;;;;;;;;5054012;28;20397;-80
2023/04/08 01:15:03;;;;;;;15.20;8.60;;;;;;;;;;5052509;28;20120;-80
2023/04/08 01:17:30;;;;;;;13.18;8.63;;;;;;;;;;5053815;28;20037;-80
2023/04/08 01:19:58;;;;;;;15.90;8.82;;;;;;;;;;5055531;28;20044;-80
2023/04/08 01:22:24;;;;;;;13.07;7.90;;;;;;;;;;5053791;28;20037;-80
2023/04/08 01:24:52;;;;;;;15.25;8.15;;;;;;;;;;5055292;28;20041;-80
2023/04/08 01:27:18;;;;;;;13.50;8.48;;;;;;;;;;5053995;28;20401;-80
2023/04/08 01:29:45;;;;;;;16.92;9.23;;;;;;;;;;5053921;28;20048;-80
2023/04/08 01:32:11;;;;;;;17.50;9.07;;;;;;;;;;5054628;28;20145;-80
2023/04/08 01:34:38;;;;;;;16.88;8.10;;;;;;;;;;5055567;28;20405;-80
2023/04/08 01:37:04;;;;;;;15.43;8.77;;;;;;;;;;5055456;28;20400;-80
2023/04/08 01:39:30;;;;;;;16.73;7.68;;;;;;;;;;5055806;28;20517;-80
2023/04/08 01:41:58;;;;;;;14.65;7.90;;;;;;;;;;5054731;28;20122;-80
2023/04/08 01:44:25;;;;;;;13.45;7.85;;;;;;;;;;5036257;28;20045;-80
2023/04/08 01:46:52;;;;;;;15.68;8.68;;;;;;;;;;5053774;28;20051;-80
2023/04/08 01:49:18;;;;;;;13.73;8.10;;;;;;;;;;5053738;28;20044;-80
2023/04/08 01:51:45;;;;;;;14.38;8.55;;;;;;;;;;5054958;28;20091;-80
2023/04/08 01:54:11;;;;;;;12.40;8.05;;;;;;;;;;5053792;28;20037;-80
2023/04/08 01:56:39;;;;;;;13.70;8.27;;;;;;;;;;5054133;28;20406;-80
2023/04/08 01:59:09;;;;;;;13.80;8.50;;;;;;;;;;5054273;28;20037;-80
2023/04/08 02:01:36;;;;;;;16.05;9.18;;;;;;;;;;5035135;28;20041;-80
2023/04/08 02:04:03;;;;;;;15.45;8.30;;;;;;;;;;5054055;28;20508;-80
2023/04/08 02:06:30;;;;;;;13.02;8.15;;;;;;;;;;5053809;28;20037;-80
2023/04/08 02:08:56;;;;;;;15.23;8.20;;;;;;;;;;5053033;28;20045;-80
2023/04/08 02:11:24;;;;;;;12.75;8.23;;;;;;;;;;5052738;28;20065;-80
2023/04/08 02:13:51;;;;;;;15.20;8.68;;;;;;;;;;5085705;28;20076;-80
2023/04/08 02:16:24;;;;;;;16.02;8.52;;;;;;;;;;5079769;28;20045;-80
2023/04/08 02:18:55;;;;;;;13.80;9.25;;;;;;;;;;5046939;28;20486;-79
2023/04/08 02:21:26;;;;;;;12.85;8.20;;;;;;;;;;5052679;28;20079;-79
2023/04/08 02:23:52;;;;;;;15.25;8.68;;;;;;;;;;5054026;28;20092;-80
2023/04/08 02:26:18;;;;;;;18.70;9.63;;;;;;;;;;5053095;28;20374;-80
2023/04/08 02:28:45;;;;;;;16.38;9.45;;;;;;;;;;5036565;28;20037;-80
2023/04/08 02:31:15;;;;;;;16.20;8.45;;;;;;;;;;5053847;28;20040;-80
2023/04/08 02:33:42;;;;;;;16.48;8.77;;;;;;;;;;5052670;28;20044;-79
2023/04/08 02:36:09;;;;;;;15.38;8.55;;;;;;;;;;5053734;28;20053;-80
2023/04/08 02:38:35;;;;;;;15.65;8.90;;;;;;;;;;5053029;28;20588;-80
2023/04/08 02:41:01;;;;;;;13.65;8.55;;;;;;;;;;5054461;28;20041;-79
2023/04/08 02:43:33;;;;;;;14.75;8.35;;;;;;;;;;5053465;28;20134;-80
2023/04/08 02:46:01;;;;;;;17.33;8.90;;;;;;;;;;5052622;28;20055;-79
2023/04/08 02:48:27;;;;;;;13.43;8.82;;;;;;;;;;5035328;28;20047;-80
2023/04/08 02:50:53;;;;;;;13.35;7.78;;;;;;;;;;5052650;28;20044;-80
2023/04/08 02:53:20;;;;;;;16.58;9.32;;;;;;;;;;5035199;28;20045;-79
2023/04/08 02:55:46;;;;;;;16.52;8.20;;;;;;;;;;5052818;28;20116;-80
2023/04/08 02:58:12;;;;;;;16.35;9.25;;;;;;;;;;5052182;28;20048;-79
2023/04/08 03:00:38;;;;;;;16.23;9.15;;;;;;;;;;5049926;28;20621;-80
2023/04/08 03:03:05;;;;;;;17.80;9.35;;;;;;;;;;5046730;28;20045;-79
2023/04/08 03:05:31;;;;;;;16.05;9.57;;;;;;;;;;5051969;28;20049;-80
2023/04/08 03:07:57;;;;;;;18.38;9.77;;;;;;;;;;5053576;28;20071;-80
2023/04/08 03:10:24;;;;;;;18.70;10.23;;;;;;;;;;5051783;28;20099;-80
2023/04/08 03:12:50;;;;;;;17.85;9.30;;;;;;;;;;5035329;28;20047;-80
2023/04/08 03:15:16;;;;;;;18.42;9.80;;;;;;;;;;5051467;28;20037;-79
2023/04/08 03:17:42;;;;;;;20.00;10.68;;;;;;;;;;5053278;28;20036;-79
2023/04/08 03:20:09;;;;;;;18.20;10.45;;;;;;;;;;5051994;28;20037;-80
2023/04/08 03:22:35;;;;;;;19.38;10.05;;;;;;;;;;5051614;28;20056;-79
2023/04/08 03:25:01;;;;;;;17.92;11.13;;;;;;;;;;5053220;28;20072;-80
2023/04/08 03:27:28;;;;;;;17.48;9.48;;;;;;;;;;5053111;28;20037;-79
2023/04/08 03:29:54;;;;;;;19.60;10.93;;;;;;;;;;5037065;28;20120;-80
2023/04/08 03:32:20;;;;;;;21.65;10.90;;;;;;;;;;5051372;28;20052;-80
2023/04/08 03:34:48;;;;;;;16.30;9.93;;;;;;;;;;5051435;28;20041;-80
2023/04/08 03:37:14;;;;;;;18.60;10.20;;;;;;;;;;5052823;28;20448;-79
2023/04/08 03:39:40;;;;;;;19.10;11.13;;;;;;;;;;5053284;28;20124;-79
2023/04/08 03:42:06;;;;;;;22.25;12.38;;;;;;;;;;5051903;28;20053;-80
2023/04/08 03:44:32;;;;;;;19.63;11.63;;;;;;;;;;5051720;28;20052;-80
2023/04/08 03:46:58;;;;;;;23.08;12.00;;;;;;;;;;5051605;28;20377;-79
2023/04/08 03:49:24;;;;;;;21.13;11.98;;;;;;;;;;5051095;28;20049;-80
2023/04/08 03:51:51;;;;;;;21.50;11.15;;;;;;;;;;5051319;28;20049;-80
2023/04/08 03:54:17;;;;;;;20.70;11.65;;;;;;;;;;5050974;28;20549;-80
2023/04/08 03:56:43;;;;;;;22.50;13.05;;;;;;;;;;5051678;28;20041;-80
2023/04/08 03:59:09;;;;;;;24.15;12.90;;;;;;;;;;5034637;28;20037;-80
2023/04/08 04:01:35;;;;;;;28.65;13.93;;;;;;;;;;5046148;28;20072;-80
2023/04/08 04:04:01;;;;;;;22.85;13.43;;;;;;;;;;5051674;28;20040;-80
2023/04/08 04:06:27;;;;;;;22.58;12.77;;;;;;;;;;5050896;28;20029;-80
2023/04/08 04:08:54;;;;;;;26.17;14.68;;;;;;;;;;5060342;28;20500;-80
2023/04/08 04:11:21;;;;;;;26.58;15.38;;;;;;;;;;5046738;28;20100;-80
2023/04/08 04:13:47;;;;;;;24.27;14.10;;;;;;;;;;5039716;28;20123;-80
2023/04/08 04:16:13;;;;;;;26.08;14.32;;;;;;;;;;5052362;28;20051;-80
2023/04/08 04:18:39;;;;;;;26.85;13.93;;;;;;;;;;5051684;28;20444;-80
2023/04/08 04:21:06;;;;;;;28.63;14.27;;;;;;;;;;5061516;28;20508;-80
2023/04/08 04:23:32;;;;;;;24.95;13.77;;;;;;;;;;5060174;28;20047;-80
2023/04/08 04:25:58;;;;;;;28.15;14.52;;;;;;;;;;5050677;28;20044;-80
2023/04/08 04:28:24;;;;;;;28.38;15.52;;;;;;;;;;5050599;28;20041;-80
2023/04/08 04:30:50;;;;;;;27.63;14.90;;;;;;;;;;5034216;28;20051;-80
2023/04/08 04:33:16;;;;;;;28.42;15.50;;;;;;;;;;5050520;28;20041;-80
2023/04/08 04:35:43;;;;;;;33.53;16.80;;;;;;;;;;5033842;28;20045;-80
2023/04/08 04:38:12;;;;;;;34.05;16.92;;;;;;;;;;5050802;28;20080;-80
2023/04/08 04:40:38;;;;;;;28.58;16.10;;;;;;;;;;5051169;28;20041;-80
2023/04/08 04:43:05;;;;;;;37.00;17.67;;;;;;;;;;5056103;28;20106;-80
2023/04/08 04:45:31;;;;;;;30.20;15.90;;;;;;;;;;5054732;28;20127;-80
2023/04/08 04:47:57;;;;;;;24.98;14.45;;;;;;;;;;5056095;28;20059;-80
2023/04/08 04:50:23;;;;;;;30.98;16.48;;;;;;;;;;5038169;28;20076;-80
2023/04/08 04:52:49;;;;;;;28.65;15.85;;;;;;;;;;5054880;28;20041;-80
2023/04/08 04:55:15;;;;;;;29.65;15.15;;;;;;;;;;5038139;28;20037;-80
2023/04/08 04:57:43;;;;;;;32.40;16.95;;;;;;;;;;5055548;28;20107;-80
2023/04/08 05:00:09;;;;;;;28.80;14.23;;;;;;;;;;5054568;28;20086;-80
2023/04/08 05:02:36;;;;;;;32.78;16.90;;;;;;;;;;5045304;28;20044;-80
2023/04/08 05:05:02;;;;;;;29.05;15.35;;;;;;;;;;5054444;28;20447;-80
2023/04/08 05:07:28;;;;;;;30.48;16.05;;;;;;;;;;5054459;28;20051;-80
2023/04/08 05:09:54;;;;;;;31.17;16.38;;;;;;;;;;5087952;28;20048;-80
2023/04/08 05:12:20;;;;;;;32.85;16.45;;;;;;;;;;5037934;28;20044;-80
2023/04/08 05:14:46;;;;;;;30.42;16.25;;;;;;;;;;5053761;28;20036;-80
2023/04/08 05:17:12;;;;;;;33.33;17.27;;;;;;;;;;5055475;28;20087;-80
2023/04/08 05:19:39;;;;;;;27.35;16.25;;;;;;;;;;5087177;28;20037;-80
2023/04/08 05:22:05;;;;;;;30.45;16.13;;;;;;;;;;5055298;28;20045;-80
2023/04/08 05:24:31;;;;;;;29.42;15.73;;;;;;;;;;5053494;28;20102;-80
2023/04/08 05:26:57;;;;;;;34.97;17.35;;;;;;;;;;5053927;28;20049;-80
2023/04/08 05:29:23;;;;;;;28.50;15.73;;;;;;;;;;5055173;28;20037;-80
2023/04/08 05:31:49;;;;;;;32.90;16.95;;;;;;;;;;5054756;28;20040;-80
2023/04/08 05:34:21;;;;;;;30.95;17.10;;;;;;;;;;5037356;28;20132;-80
2023/04/08 05:36:50;;;;;;;31.90;16.27;;;;;;;;;;5036896;28;20094;-80
2023/04/08 05:39:17;;;;;;;32.65;16.75;;;;;;;;;;5070421;28;20049;-80
2023/04/08 05:41:43;;;;;;;36.75;18.30;;;;;;;;;;5054324;28;20061;-80
2023/04/08 05:44:10;;;;;;;34.40;17.50;;;;;;;;;;5053698;28;20107;-80
2023/04/08 05:46:37;;;;;;;33.05;16.73;;;;;;;;;;5052999;28;20045;-80
2023/04/08 05:49:03;;;;;;;35.20;17.85;;;;;;;;;;5053702;28;20040;-80
2023/04/08 05:51:29;;;;;;;38.92;18.75;;;;;;;;;;5054834;28;20049;-80
2023/04/08 05:53:55;;;;;;;32.88;17.10;;;;;;;;;;5054157;28;20037;-80
2023/04/08 05:56:21;;;;;;;28.52;15.65;;;;;;;;;;5054714;28;20037;-80
2023/04/08 05:58:48;;;;;;;28.55;15.98;;;;;;;;;;5052956;28;20119;-80
2023/04/08 06:01:14;;;;;;;35.13;18.92;;;;;;;;;;5045615;28;20033;-80
2023/04/08 06:03:40;;;;;;;30.80;16.02;;;;;;;;;;5052171;28;20053;-80
2023/04/08 06:06:13;;;;;;;34.03;16.98;;;;;;;;;;5053151;28;20049;-80
2023/04/08 06:08:39;;;;;;;28.23;15.70;;;;;;;;;;5054156;28;20132;-80
2023/04/08 06:11:05;;;;;;;33.47;17.65;;;;;;;;;;5053335;28;20052;-80
2023/04/08 06:13:31;;;;;;;30.23;17.42;;;;;;;;;;5053023;28;20044;-80
2023/04/08 06:15:58;;;;;;;33.20;17.92;;;;;;;;;;5054253;28;20041;-80
2023/04/08 06:18:25;;;;;;;31.33;16.98;;;;;;;;;;5054311;28;20037;-80
2023/04/08 06:20:51;;;;;;;32.85;16.55;;;;;;;;;;5053692;28;20058;-80
2023/04/08 06:23:17;;;;;;;33.80;17.70;;;;;;;;;;5054114;28;20056;-81
2023/04/08 06:25:43;;;;;;;33.58;18.55;;;;;;;;;;5052669;28;20040;-81
2023/04/08 06:28:09;;;;;;;34.22;18.13;;;;;;;;;;5052755;28;20037;-80
2023/04/08 06:30:35;;;;;;;35.58;18.20;;;;;;;;;;5053929;28;20036;-81
2023/04/08 06:33:01;;;;;;;33.47;18.23;;;;;;;;;;5052555;28;20084;-81
2023/04/08 06:35:27;;;;;;;30.48;17.33;;;;;;;;;;5036275;28;20063;-81
2023/04/08 06:37:53;;;;;;;28.20;16.13;;;;;;;;;;5052202;28;20033;-81
2023/04/08 06:40:19;;;;;;;23.73;14.82;;;;;;;;;;5052988;28;20044;-81
2023/04/08 06:42:45;;;;;;;21.15;13.98;;;;;;;;;;5051962;28;20053;-81
2023/04/08 06:45:12;;;;;;;23.58;14.32;;;;;;;;;;5054082;28;20083;-82
2023/04/08 06:47:38;;;;;;;21.63;14.05;;;;;;;;;;5052309;28;20037;-81
2023/04/08 06:50:04;;;;;;;21.65;14.50;;;;;;;;;;5052480;28;20048;-81
2023/04/08 06:52:30;;;;;;;21.33;13.68;;;;;;;;;;5052684;28;20102;-81
2023/04/08 06:54:56;;;;;;;22.23;15.00;;;;;;;;;;5053127;28;20540;-81
2023/04/08 06:57:22;;;;;;;23.45;14.13;;;;;;;;;;5053645;28;20110;-81
2023/04/08 06:59:48;;;;;;;23.65;15.07;;;;;;;;;;5052674;28;20041;-80
2023/04/08 07:02:15;;;;;;;23.75;14.95;;;;;;;;;;5045576;28;20537;-81
2023/04/08 07:04:41;;;;;;;21.42;14.00;;;;;;;;;;5050967;28;20083;-80
2023/04/08 07:07:08;;;;;;;26.25;15.43;;;;;;;;;;5053383;28;20497;-81
2023/04/08 07:09:35;;;;;;;24.58;15.15;;;;;;;;;;5053477;28;20045;-81
2023/04/08 07:12:02;;;;;;;21.45;14.25;;;;;;;;;;5035243;28;20051;-81
2023/04/08 07:14:28;;;;;;;29.65;15.75;;;;;;;;;;5052235;28;20098;-81
2023/04/08 07:16:55;;;;;;;25.15;15.20;;;;;;;;;;5034850;28;20120;-81
2023/04/08 07:19:23;;;;;;;24.25;15.32;;;;;;;;;;5053471;28;20094;-81
2023/04/08 07:21:49;;;;;;;27.90;15.77;;;;;;;;;;5051280;28;20051;-81
2023/04/08 07:24:15;;;;;;;29.38;16.10;;;;;;;;;;5053035;28;20508;-81
2023/04/08 07:26:41;;;;;;;25.73;15.95;;;;;;;;;;5051260;28;20055;-81
2023/04/08 07:29:07;;;;;;;25.02;15.13;;;;;;;;;;5035490;28;20504;-81
2023/04/08 07:31:33;;;;;;;25.25;15.35;;;;;;;;;;5052973;28;20040;-81
2023/04/08 07:33:59;;;;;;;28.50;15.95;;;;;;;;;;5052709;28;20433;-81
2023/04/08 07:36:25;;;;;;;25.42;15.57;;;;;;;;;;5051259;28;20114;-81
2023/04/08 07:38:51;;;;;;;28.13;15.45;;;;;;;;;;5052342;28;20051;-81
2023/04/08 07:41:18;;;;;;;26.83;15.40;;;;;;;;;;5034774;28;20041;-80
2023/04/08 07:43:44;;;;;;;26.63;16.15;;;;;;;;;;5051289;28;20119;-81
2023/04/08 07:46:10;;;;;;;26.17;15.93;;;;;;;;;;5051967;28;20041;-81
2023/04/08 07:48:36;;;;;;;28.55;17.35;;;;;;;;;;5051581;28;20041;-81
2023/04/08 07:51:06;;;;;;;30.95;15.73;;;;;;;;;;5051140;28;20048;-81
2023/04/08 07:53:33;;;;;;;30.35;17.30;;;;;;;;;;5052226;28;20037;-81
2023/04/08 07:55:59;;;;;;;29.10;16.65;;;;;;;;;;5052072;28;20036;-81
2023/04/08 07:58:25;;;;;;;32.88;17.65;;;;;;;;;;5052746;28;20029;-81
2023/04/08 08:00:52;;;;;;;27.55;16.45;;;;;;;;;;5048683;28;20041;-81
2023/04/08 08:03:18;;;;;;;29.00;16.67;;;;;;;;;;5051212;28;20052;-81
2023/04/08 08:05:44;;;;;;;28.00;16.25;;;;;;;;;;5051385;28;20486;-81
2023/04/08 08:08:10;;;;;;;28.35;16.52;;;;;;;;;;5051312;28;20041;-81
2023/04/08 08:10:40;;;;;;;27.73;15.63;;;;;;;;;;5051103;28;20131;-81
2023/04/08 08:13:07;;;;;;;28.48;16.40;;;;;;;;;;5050561;28;20493;-81
2023/04/08 08:15:33;;;;;;;28.17;16.33;;;;;;;;;;5050919;28;20041;-81
2023/04/08 08:17:59;;;;;;;27.85;16.55;;;;;;;;;;5051574;28;20044;-81
2023/04/08 08:20:26;;;;;;;29.33;17.40;;;;;;;;;;5052252;28;20068;-81
2023/04/08 08:22:52;;;;;;;132.57;84.10;;;;;;;;;;5050318;28;20106;-82
2023/04/08 08:25:18;;;;;;;29.48;18.63;;;;;;;;;;5050943;28;20052;-81
2023/04/08 08:27:44;;;;;;;27.75;16.58;;;;;;;;;;5051016;28;20394;-81
2023/04/08 08:30:10;;;;;;;27.65;16.38;;;;;;;;;;5050657;28;20145;-81
2023/04/08 08:32:36;;;;;;;27.23;17.20;;;;;;;;;;5084137;28;20055;-81
2023/04/08 08:35:03;;;;;;;25.95;15.65;;;;;;;;;;5033818;28;20033;-81
2023/04/08 08:37:29;;;;;;;25.58;16.70;;;;;;;;;;5050600;28;20083;-81
2023/04/08 08:39:55;;;;;;;28.50;16.48;;;;;;;;;;5050543;28;20432;-81
2023/04/08 08:42:25;;;;;;;26.83;17.23;;;;;;;;;;5050693;28;20410;-81
2023/04/08 08:44:51;;;;;;;26.20;16.13;;;;;;;;;;5050610;28;20033;-82
2023/04/08 08:47:17;;;;;;;24.60;15.90;;;;;;;;;;5050836;28;20505;-82
2023/04/08 08:49:44;;;;;;;24.08;16.48;;;;;;;;;;5050659;28;20418;-82
2023/04/08 08:52:10;;;;;;;21.55;14.82;;;;;;;;;;5050407;28;20541;-82
2023/04/08 08:54:37;;;;;;;21.38;15.65;;;;;;;;;;5052721;28;20053;-82
2023/04/08 08:57:03;;;;;;;24.10;16.23;;;;;;;;;;5051411;28;20048;-82
2023/04/08 08:59:29;;;;;;;22.05;15.93;;;;;;;;;;5051189;28;20049;-83
2023/04/08 09:01:55;;;;;;;23.85;15.95;;;;;;;;;;5041591;28;20041;-82
2023/04/08 09:04:22;;;;;;;21.52;15.07;;;;;;;;;;5035039;28;20044;-83
2023/04/08 09:06:49;;;;;;;20.35;15.02;;;;;;;;;;5034952;28;20563;-83
2023/04/08 09:09:16;;;;;;;19.23;14.68;;;;;;;;;;5054415;28;20079;-82
2023/04/08 09:11:46;;;;;;;19.80;16.00;;;;;;;;;;5051396;28;20045;-82
2023/04/08 09:14:19;;;;;;;18.70;15.48;;;;;;;;;;5034270;28;20025;-83
2023/04/08 09:16:46;;;;;;;19.70;15.18;;;;;;;;;;5052070;28;20077;-83
2023/04/08 09:19:12;;;;;;;17.20;13.90;;;;;;;;;;5050253;28;20115;-83
2023/04/08 09:21:40;;;;;;;17.05;13.65;;;;;;;;;;5052186;28;20040;-83
2023/04/08 09:24:06;;;;;;;17.08;13.68;;;;;;;;;;5051821;28;20052;-83
2023/04/08 09:26:32;;;;;;;16.55;13.07;;;;;;;;;;5034394;28;20082;-83
2023/04/08 09:29:08;;;;;;;15.00;13.18;;;;;;;;;;5053448;28;20036;-83
2023/04/08 09:31:35;;;;;;;;;;;;;;;;;;5055036;28;20045;-83
2023/04/08 09:34:08;;;;;;;15.75;14.05;;;;;;;;;;5055712;28;20278;-83
2023/04/08 09:36:34;;;;;;;16.15;14.25;;;;;;;;;;5055057;28;20037;-83
2023/04/08 09:39:00;;;;;;;16.20;14.15;;;;;;;;;;5054854;28;20048;-83
2023/04/08 09:41:28;;;;;;;17.25;13.70;;;;;;;;;;5068579;28;20048;-84
2023/04/08 09:43:55;;;;;;;16.45;13.65;;;;;;;;;;5054935;28;20045;-83
2023/04/08 09:46:41;;;;;;;16.30;13.98;;;;;;;;;;5054656;28;20144;-83
2023/04/08 09:49:11;;;;;;;15.00;12.55;;;;;;;;;;5042187;28;20049;-82
2023/04/08 09:51:43;;;;;;;14.95;13.35;;;;;;;;;;5054787;28;20037;-83
2023/04/08 09:54:12;;;;;;;14.02;12.50;;;;;;;;;;5055453;28;20044;-83
2023/04/08 09:56:49;;;;;;;15.02;13.20;;;;;;;;;;5054120;28;20044;-83
2023/04/08 09:59:17;;;;;;;15.38;13.77;;;;;;;;;;5054319;28;20538;-83
2023/04/08 10:01:50;;;;;;;15.43;13.43;;;;;;;;;;5043730;28;20070;-83
2023/04/08 10:04:19;;;;;;;16.27;13.15;;;;;;;;;;5041763;28;20086;-82
2023/04/08 10:06:50;;;;;;;16.20;13.82;;;;;;;;;;5053933;28;20099;-83
2023/04/08 10:09:16;;;;;;;15.65;14.05;;;;;;;;;;5055113;28;20077;-82
2023/04/08 10:11:42;;;;;;;16.63;14.82;;;;;;;;;;5055088;28;20068;-83
2023/04/08 10:14:10;;;;;;;17.75;14.40;;;;;;;;;;5053681;28;20044;-82
2023/04/08 10:16:37;;;;;;;16.17;14.30;;;;;;;;;;5037500;28;20045;-82
2023/04/08 10:19:23;;;;;;;15.05;13.07;;;;;;;;;;5053893;28;20378;-82
2023/04/08 10:21:49;;;;;;;13.90;12.50;;;;;;;;;;5037290;28;20537;-82
2023/04/08 10:24:17;;;;;;;13.98;12.55;;;;;;;;;;5053825;28;20405;-82
2023/04/08 10:26:44;;;;;;;14.32;12.57;;;;;;;;;;5053646;28;20049;-82
2023/04/08 10:29:20;;;;;;;14.38;12.88;;;;;;;;;;5053159;28;20037;-82
2023/04/08 10:31:49;;;;;;;12.80;11.50;;;;;;;;;;5053599;28;20118;-82
2023/04/08 10:34:19;;;;;;;13.32;11.60;;;;;;;;;;5053255;28;20139;-82
2023/04/08 10:36:45;;;;;;;13.05;11.75;;;;;;;;;;5036493;28;20039;-82
2023/04/08 10:39:13;;;;;;;13.00;11.70;;;;;;;;;;5053774;28;20033;-83
2023/04/08 10:41:42;;;;;;;12.55;11.25;;;;;;;;;;5052856;28;20044;-82
2023/04/08 10:44:19;;;;;;;14.60;11.88;;;;;;;;;;5053893;28;20057;-82
2023/04/08 10:46:45;;;;;;;14.13;11.60;;;;;;;;;;5053106;28;20041;-82
2023/04/08 10:49:12;;;;;;;13.88;11.85;;;;;;;;;;5053957;28;20059;-82
2023/04/08 10:51:38;;;;;;;11.70;10.50;;;;;;;;;;5054025;28;20041;-83
2023/04/08 10:54:08;;;;;;;12.30;11.00;;;;;;;;;;5053960;28;20452;-82
2023/04/08 10:56:35;;;;;;;13.85;11.10;;;;;;;;;;5054032;28;20106;-83
2023/04/08 10:59:02;;;;;;;12.63;11.40;;;;;;;;;;5052336;28;20120;-82
2023/04/08 11:01:38;;;;;;;12.13;10.90;;;;;;;;;;5052897;28;20045;-82
2023/04/08 11:04:07;;;;;;;14.68;12.82;;;;;;;;;;5036290;28;20095;-82
2023/04/08 11:06:36;;;;;;;12.25;10.95;;;;;;;;;;5052789;28;20051;-82
2023/04/08 11:09:03;;;;;;;12.75;11.27;;;;;;;;;;5054211;28;20170;-82
2023/04/08 11:11:30;;;;;;;13.45;11.95;;;;;;;;;;5053889;28;20044;-82
2023/04/08 11:13:56;;;;;;;13.05;11.60;;;;;;;;;;5052624;28;20390;-82
2023/04/08 11:16:22;;;;;;;13.18;11.77;;;;;;;;;;5054767;28;20130;-82
2023/04/08 11:18:50;;;;;;;12.68;11.13;;;;;;;;;;5053126;28;20037;-82
2023/04/08 11:21:16;;;;;;;13.10;11.70;;;;;;;;;;5054528;28;20394;-82
2023/04/08 11:23:42;;;;;;;14.45;12.35;;;;;;;;;;5052876;28;20049;-81
2023/04/08 11:26:08;;;;;;;13.30;11.95;;;;;;;;;;5051875;28;20099;-82
2023/04/08 11:28:34;;;;;;;13.63;11.93;;;;;;;;;;5052240;28;20045;-82
2023/04/08 11:31:04;;;;;;;15.73;12.68;;;;;;;;;;5053778;28;20037;-81
2023/04/08 11:33:31;;;;;;;14.23;12.77;;;;;;;;;;5052804;28;20045;-81
2023/04/08 11:35:57;;;;;;;14.63;12.82;;;;;;;;;;5052997;28;20045;-81
2023/04/08 11:38:24;;;;;;;15.25;11.88;;;;;;;;;;5051819;28;20033;-82
2023/04/08 11:40:54;;;;;;;13.80;11.57;;;;;;;;;;5051658;28;20037;-82
2023/04/08 11:43:20;;;;;;;13.35;10.85;;;;;;;;;;5031179;28;20057;-82
2023/04/08 11:45:47;;;;;;;12.85;10.80;;;;;;;;;;5042788;28;20061;-81
2023/04/08 11:48:15;;;;;;;13.75;11.23;;;;;;;;;;5052257;28;20120;-81
2023/04/08 11:50:41;;;;;;;14.32;11.40;;;;;;;;;;5051065;28;20044;-81
2023/04/08 11:53:26;;;;;;;14.68;11.63;;;;;;;;;;5034820;28;20063;-82
2023/04/08 11:55:52;;;;;;;14.35;11.70;;;;;;;;;;5051761;28;20482;-81
2023/04/08 11:58:18;;;;;;;15.68;11.60;;;;;;;;;;5052154;28;20513;-80
2023/04/08 12:00:44;;;;;;;15.27;12.05;;;;;;;;;;5030996;28;20045;-81
2023/04/08 12:03:11;;;;;;;15.68;10.85;;;;;;;;;;5046841;28;20517;-81
2023/04/08 12:05:37;;;;;;;14.48;11.70;;;;;;;;;;5050929;28;20119;-81
2023/04/08 12:08:04;;;;;;;14.75;10.98;;;;;;;;;;5034685;28;20036;-81
2023/04/08 12:10:30;;;;;;;13.65;10.80;;;;;;;;;;5050654;28;20029;-81
2023/04/08 12:12:56;;;;;;;15.18;11.10;;;;;;;;;;5051482;28;20040;-81
2023/04/08 12:15:22;;;;;;;13.85;11.25;;;;;;;;;;5051890;28;20037;-82
2023/04/08 12:17:48;;;;;;;12.65;10.88;;;;;;;;;;5051336;28;20549;-82
2023/04/08 12:20:16;;;;;;;12.48;9.88;;;;;;;;;;5050683;28;20041;-82
2023/04/08 12:22:42;;;;;;;13.35;10.65;;;;;;;;;;5051184;28;20120;-81
2023/04/08 12:25:08;;;;;;;11.50;10.10;;;;;;;;;;5052292;28;20045;-82
2023/04/08 12:27:37;;;;;;;13.57;10.75;;;;;;;;;;5051356;28;20037;-81
2023/04/08 12:30:03;;;;;;;12.50;10.13;;;;;;;;;;5052062;28;20515;-82
2023/04/08 12:32:29;;;;;;;12.48;10.00;;;;;;;;;;5050737;28;20501;-82
2023/04/08 12:34:55;;;;;;;13.40;10.73;;;;;;;;;;5050531;28;20037;-82
2023/04/08 12:37:21;;;;;;;12.77;10.73;;;;;;;;;;5051895;28;20520;-81
2023/04/08 12:39:48;;;;;;;13.63;10.40;;;;;;;;;;5051328;28;20407;-82
2023/04/08 12:42:14;;;;;;;13.23;10.48;;;;;;;;;;5050626;28;20533;-81
2023/04/08 12:44:40;;;;;;;12.23;10.45;;;;;;;;;;5051647;28;20167;-82
2023/04/08 12:47:06;;;;;;;13.52;11.20;;;;;;;;;;5051764;28;20048;-81
2023/04/08 12:49:32;;;;;;;13.48;10.88;;;;;;;;;;5050133;28;20043;-81
2023/04/08 12:51:59;;;;;;;12.40;10.65;;;;;;;;;;5033735;28;20048;-82
2023/04/08 12:54:25;;;;;;;12.85;10.27;;;;;;;;;;5051622;28;20037;-82
2023/04/08 12:56:51;;;;;;;14.40;10.52;;;;;;;;;;5050394;28;20045;-82
2023/04/08 12:59:17;;;;;;;12.13;10.07;;;;;;;;;;5051800;28;20037;-82
2023/04/08 13:01:43;;;;;;;11.63;9.55;;;;;;;;;;5034773;28;20394;-82
2023/04/08 13:04:09;;;;;;;13.52;10.32;;;;;;;;;;5054393;28;20068;-82
2023/04/08 13:06:35;;;;;;;12.60;9.95;;;;;;;;;;5054187;28;20037;-82
2023/04/08 13:09:01;;;;;;;8.98;7.72;;;;;;;;;;5055881;28;20120;-86
2023/04/08 13:11:27;;;;;;;11.80;9.40;;;;;;;;;;5055590;28;20486;-86
2023/04/08 13:13:53;;;;;;;12.45;9.18;;;;;;;;;;5055464;28;20071;-86
2023/04/08 13:16:20;;;;;;;10.35;8.38;;;;;;;;;;5055309;28;20425;-86
2023/04/08 13:18:46;;;;;;;9.52;7.97;;;;;;;;;;5056609;28;20519;-86
2023/04/08 13:21:12;;;;;;;9.32;7.63;;;;;;;;;;5056452;28;20409;-86
2023/04/08 13:23:38;;;;;;;11.00;8.18;;;;;;;;;;5056355;28;20049;-87
2023/04/08 13:26:05;;;;;;;10.43;8.30;;;;;;;;;;5055058;28;20055;-86
2023/04/08 13:28:31;;;;;;;9.55;7.60;;;;;;;;;;5056167;28;20052;-86
2023/04/08 13:30:57;;;;;;;10.02;8.13;;;;;;;;;;5054963;28;20040;-86
2023/04/08 13:33:23;;;;;;;10.93;7.63;;;;;;;;;;5054790;28;20049;-86
2023/04/08 13:35:49;;;;;;;9.93;7.90;;;;;;;;;;5056006;28;20119;-86
2023/04/08 13:38:16;;;;;;;9.98;7.60;;;;;;;;;;5055650;28;20551;-86
2023/04/08 13:40:42;;;;;;;9.57;7.20;;;;;;;;;;5055053;28;20048;-86
2023/04/08 13:43:08;;;;;;;9.93;7.82;;;;;;;;;;5054802;28;20053;-86
2023/04/08 13:45:35;;;;;;;10.90;7.78;;;;;;;;;;5054690;28;20053;-86
2023/04/08 13:48:01;;;;;;;9.25;7.50;;;;;;;;;;5054813;28;20397;-86
2023/04/08 13:50:27;;;;;;;10.50;8.10;;;;;;;;;;5054403;28;20080;-86
2023/04/08 13:52:53;;;;;;;11.07;7.60;;;;;;;;;;5055771;28;20044;-86
2023/04/08 13:55:19;;;;;;;10.70;7.90;;;;;;;;;;5054629;28;20033;-86
2023/04/08 13:57:46;;;;;;;9.88;8.00;;;;;;;;;;5054523;28;20041;-86
2023/04/08 14:00:12;;;;;;;14.77;8.07;;;;;;;;;;5055496;28;20041;-86
2023/04/08 14:02:38;;;;;;;11.02;8.70;;;;;;;;;;5054178;28;20072;-86
2023/04/08 14:05:05;;;;;;;10.07;7.93;;;;;;;;;;5024496;28;20053;-86
2023/04/08 14:07:31;;;;;;;11.02;8.02;;;;;;;;;;5017913;28;20130;-86
2023/04/08 14:09:57;;;;;;;9.73;7.30;;;;;;;;;;5045344;28;20048;-86
2023/04/08 14:12:23;;;;;;;9.50;7.47;;;;;;;;;;5054057;28;20056;-86
2023/04/08 14:14:49;;;;;;;10.48;7.57;;;;;;;;;;5053499;28;20049;-86
2023/04/08 14:17:15;;;;;;;10.43;7.72;;;;;;;;;;5054409;28;20521;-85
2023/04/08 14:19:41;;;;;;;11.90;8.07;;;;;;;;;;5054561;28;20441;-86